createdAt,value
2022-11-13T00:01:06.546Z,22.4
2022-11-13T00:02:49.919Z,22.4
2022-11-13T00:04:33.325Z,22.4
2022-11-13T00:06:16.722Z,22.4
2022-11-13T00:09:43.185Z,22.4
2022-11-13T00:11:26.598Z,22.4
2022-11-13T00:13:09.973Z,22.3
2022-11-13T00:14:53.385Z,22.3
2022-11-13T00:16:36.765Z,22.4
2022-11-13T00:18:20.210Z,22.3
2022-11-13T00:20:03.574Z,22.3
2022-11-13T00:21:46.968Z,22.3
2022-11-13T00:25:13.453Z,22.3
2022-11-13T00:26:56.830Z,22.3
2022-11-13T00:28:40.220Z,22.3
2022-11-13T00:30:23.629Z,22.3
2022-11-13T00:32:07.031Z,22.3
2022-11-13T00:33:50.422Z,22.3
2022-11-13T00:35:33.808Z,22.3
2022-11-13T00:39:00.319Z,22.3
2022-11-13T00:40:43.689Z,22.3
2022-11-13T00:42:27.092Z,22.3
2022-11-13T00:44:10.474Z,22.3
2022-11-13T00:45:53.939Z,22.3
2022-11-13T00:47:37.276Z,22.3
2022-11-13T00:49:20.671Z,22.3
2022-11-13T00:51:04.083Z,22.3
2022-11-13T00:56:13.320Z,22.3
2022-11-13T00:57:56.710Z,22.3
2022-11-13T00:59:40.108Z,22.3
2022-11-13T01:01:23.506Z,22.3
2022-11-13T01:03:06.895Z,22.3
2022-11-13T01:04:50.354Z,22.3
2022-11-13T01:06:33.727Z,22.3
2022-11-13T01:08:17.190Z,22.3
2022-11-13T01:10:00.812Z,22.3
2022-11-13T01:11:44.256Z,22.3
2022-11-13T01:13:27.586Z,22.3
2022-11-13T01:15:10.982Z,22.3
2022-11-13T01:16:54.377Z,22.3
2022-11-13T01:18:37.767Z,22.3
2022-11-13T01:20:21.184Z,22.3
2022-11-13T01:22:04.575Z,22.3
2022-11-13T01:25:31.047Z,22.3
2022-11-13T01:27:14.443Z,22.3
2022-11-13T01:28:57.833Z,22.3
2022-11-13T01:30:41.224Z,22.3
2022-11-13T01:32:24.638Z,22.3
2022-11-13T01:34:08.087Z,22.2
2022-11-13T01:35:51.443Z,22.3
2022-11-13T01:37:34.822Z,22.3
2022-11-13T01:39:18.520Z,22.2
2022-11-13T01:41:01.923Z,22.2
2022-11-13T01:42:45.323Z,22.2
2022-11-13T01:44:28.722Z,22.2
2022-11-13T01:46:12.105Z,22.2
2022-11-13T01:47:55.514Z,22.2
2022-11-13T01:49:38.907Z,22.2
2022-11-13T01:51:22.345Z,22.2
2022-11-13T01:54:48.762Z,22.2
2022-11-13T01:56:32.171Z,22.2
2022-11-13T01:58:15.554Z,22.2
2022-11-13T01:59:58.951Z,22.2
2022-11-13T02:01:42.371Z,22.2
2022-11-13T02:03:25.770Z,22.2
2022-11-13T02:05:09.141Z,22.2
2022-11-13T02:06:52.554Z,22.2
2022-11-13T02:10:19.019Z,22.2
2022-11-13T02:12:02.413Z,22.2
2022-11-13T02:13:45.815Z,22.2
2022-11-13T02:15:29.217Z,22.2
2022-11-13T02:17:12.696Z,22.2
2022-11-13T02:18:55.995Z,22.2
2022-11-13T02:20:39.393Z,22.2
2022-11-13T02:22:22.778Z,22.2
2022-11-13T02:24:06.497Z,22.2
2022-11-13T02:25:49.896Z,22.2
2022-11-13T02:27:33.321Z,22.2
2022-11-13T02:29:16.685Z,22.2
2022-11-13T02:31:00.087Z,22.2
2022-11-13T02:32:43.471Z,22.2
2022-11-13T02:34:26.869Z,22.2
2022-11-13T02:36:10.280Z,22.2
2022-11-13T02:39:36.764Z,22.2
2022-11-13T02:41:20.147Z,22.2
2022-11-13T02:43:03.537Z,22.1
2022-11-13T02:44:46.926Z,22.2
2022-11-13T02:46:30.317Z,22.2
2022-11-13T02:48:13.716Z,22.2
2022-11-13T02:49:57.110Z,22.1
2022-11-13T02:53:23.588Z,22.2
2022-11-13T02:55:06.985Z,22.2
2022-11-13T02:56:50.395Z,22.1
2022-11-13T02:58:33.787Z,22.1
2022-11-13T03:00:17.185Z,22.1
2022-11-13T03:02:00.573Z,22.1
2022-11-13T03:03:43.960Z,22.1
2022-11-13T03:05:27.373Z,22.1
2022-11-13T03:08:53.866Z,22.1
2022-11-13T03:10:37.236Z,22.1
2022-11-13T03:12:20.620Z,22.1
2022-11-13T03:14:04.253Z,22.1
2022-11-13T03:15:47.501Z,22.1
2022-11-13T03:17:30.952Z,22.1
2022-11-13T03:19:14.275Z,22.1
2022-11-13T03:22:40.790Z,22.1
2022-11-13T03:24:24.085Z,22.1
2022-11-13T03:26:07.504Z,22.1
2022-11-13T03:27:50.889Z,22.1
2022-11-13T03:29:34.319Z,22.1
2022-11-13T03:31:17.682Z,22.1
2022-11-13T03:33:01.072Z,22.1
2022-11-13T03:34:44.472Z,22.1
2022-11-13T03:38:10.937Z,22.1
2022-11-13T03:39:54.353Z,22.1
2022-11-13T03:41:37.758Z,22.1
2022-11-13T03:43:21.165Z,22.1
2022-11-13T03:45:04.516Z,22.1
2022-11-13T03:46:47.915Z,22.1
2022-11-13T03:48:31.315Z,22.1
2022-11-13T03:53:40.560Z,22.1
2022-11-13T03:55:23.954Z,22.1
2022-11-13T03:57:07.354Z,22.1
2022-11-13T03:58:50.744Z,22.1
2022-11-13T04:00:34.140Z,22.1
2022-11-13T04:02:17.565Z,22.1
2022-11-13T04:04:00.929Z,22.1
2022-11-13T04:05:44.314Z,22.1
2022-11-13T04:07:28.146Z,22.1
2022-11-13T04:09:11.427Z,22.1
2022-11-13T04:10:54.832Z,22.1
2022-11-13T04:12:38.217Z,22.1
2022-11-13T04:14:21.657Z,22.1
2022-11-13T04:16:05.007Z,22.1
2022-11-13T04:17:48.422Z,22.1
2022-11-13T04:19:31.814Z,22
2022-11-13T04:21:15.514Z,22
2022-11-13T04:22:58.905Z,22
2022-11-13T04:24:42.297Z,22
2022-11-13T04:26:25.726Z,22
2022-11-13T04:28:09.142Z,22
2022-11-13T04:29:52.565Z,22
2022-11-13T04:31:35.896Z,22
2022-11-13T04:33:19.289Z,22
2022-11-13T04:36:45.794Z,22
2022-11-13T04:38:29.158Z,22
2022-11-13T04:40:12.544Z,22
2022-11-13T04:41:55.935Z,22
2022-11-13T04:43:39.342Z,22
2022-11-13T04:45:22.783Z,22
2022-11-13T04:47:06.118Z,22
2022-11-13T04:52:15.368Z,22
2022-11-13T04:53:58.831Z,22
2022-11-13T04:55:42.167Z,22
2022-11-13T04:57:25.570Z,22
2022-11-13T04:59:09.001Z,22
2022-11-13T05:00:52.351Z,22
2022-11-13T05:02:35.805Z,22
2022-11-13T05:07:44.993Z,22
2022-11-13T05:09:28.384Z,22
2022-11-13T05:11:11.773Z,22
2022-11-13T05:12:55.212Z,22
2022-11-13T05:14:38.590Z,22
2022-11-13T05:16:21.966Z,22
2022-11-13T05:18:05.362Z,22
2022-11-13T05:19:48.762Z,22
2022-11-13T05:21:32.480Z,22
2022-11-13T05:23:15.863Z,22
2022-11-13T05:24:59.261Z,22
2022-11-13T05:26:42.668Z,22
2022-11-13T05:28:26.045Z,22
2022-11-13T05:30:09.448Z,22
2022-11-13T05:31:52.841Z,22
2022-11-13T05:33:36.252Z,22
2022-11-13T05:35:19.940Z,22
2022-11-13T05:37:03.355Z,22
2022-11-13T05:38:46.729Z,22
2022-11-13T05:40:30.128Z,22
2022-11-13T05:42:13.527Z,22
2022-11-13T05:43:56.938Z,22
2022-11-13T05:45:40.353Z,22
2022-11-13T05:47:23.713Z,22
2022-11-13T05:50:50.185Z,22
2022-11-13T05:52:33.600Z,22
2022-11-13T05:54:16.982Z,22
2022-11-13T05:56:00.375Z,22
2022-11-13T05:57:43.784Z,22
2022-11-13T05:59:27.199Z,22
2022-11-13T06:01:10.571Z,22
2022-11-13T06:04:37.031Z,22
2022-11-13T06:06:20.463Z,22
2022-11-13T06:08:03.825Z,22
2022-11-13T06:09:47.238Z,22
2022-11-13T06:11:30.633Z,22
2022-11-13T06:13:14.021Z,22
2022-11-13T06:14:57.415Z,22
2022-11-13T06:16:40.826Z,22
2022-11-13T06:20:07.286Z,22
2022-11-13T06:21:50.685Z,22
2022-11-13T06:23:34.080Z,22
2022-11-13T06:25:17.497Z,22
2022-11-13T06:27:00.920Z,22
2022-11-13T06:28:44.262Z,22
2022-11-13T06:30:27.661Z,22
2022-11-13T06:35:36.917Z,22
2022-11-13T06:37:20.302Z,22
2022-11-13T06:39:03.691Z,22
2022-11-13T06:40:47.108Z,22
2022-11-13T06:42:30.489Z,22
2022-11-13T06:44:13.937Z,22
2022-11-13T06:45:57.297Z,22
2022-11-13T06:47:40.683Z,22
2022-11-13T06:49:24.441Z,22
2022-11-13T06:51:07.786Z,22
2022-11-13T06:52:51.184Z,22
2022-11-13T06:54:34.565Z,22
2022-11-13T06:56:17.971Z,22
2022-11-13T06:58:01.361Z,22
2022-11-13T06:59:44.765Z,22
2022-11-13T07:01:28.246Z,22
2022-11-13T07:04:54.624Z,22
2022-11-13T07:06:38.032Z,22
2022-11-13T07:08:21.454Z,22
2022-11-13T07:10:04.817Z,22
2022-11-13T07:11:48.223Z,22
2022-11-13T07:13:31.621Z,22
2022-11-13T07:15:15.008Z,22
2022-11-13T07:16:58.420Z,22
2022-11-13T07:20:24.936Z,22
2022-11-13T07:22:08.281Z,22
2022-11-13T07:23:51.657Z,22
2022-11-13T07:25:35.143Z,22
2022-11-13T07:27:18.590Z,22
2022-11-13T07:29:01.951Z,22
2022-11-13T07:30:45.260Z,22
2022-11-13T07:32:28.794Z,22
2022-11-13T07:34:12.347Z,22
2022-11-13T07:35:55.752Z,22
2022-11-13T07:37:39.151Z,21.9
2022-11-13T07:39:22.556Z,21.6
2022-11-13T07:41:05.984Z,21.1
2022-11-13T07:42:49.329Z,20.7
2022-11-13T07:44:32.730Z,20.6
2022-11-13T07:46:16.248Z,20.6
2022-11-13T07:51:25.409Z,20.8
2022-11-13T07:53:08.763Z,20.9
2022-11-13T07:54:52.208Z,20.9
2022-11-13T07:56:35.571Z,21
2022-11-13T07:58:18.963Z,21
2022-11-13T08:00:02.399Z,21.1
2022-11-13T08:01:45.810Z,21.1
2022-11-13T08:03:29.126Z,21.2
2022-11-13T08:05:12.553Z,21.3
2022-11-13T08:06:56.243Z,21.3
2022-11-13T08:08:39.629Z,21.3
2022-11-13T08:10:23.136Z,21.4
2022-11-13T08:12:06.445Z,21.4
2022-11-13T08:13:49.955Z,21.5
2022-11-13T08:15:33.238Z,21.5
2022-11-13T08:17:16.612Z,21.6
2022-11-13T08:19:00.011Z,21.6
2022-11-13T08:20:43.415Z,21.7
2022-11-13T08:22:27.118Z,21.7
2022-11-13T08:24:10.540Z,21.7
2022-11-13T08:25:53.892Z,21.8
2022-11-13T08:27:37.297Z,21.8
2022-11-13T08:29:20.758Z,21.9
2022-11-13T08:31:04.105Z,21.9
2022-11-13T08:32:47.479Z,21.9
2022-11-13T08:34:30.892Z,21.9
2022-11-13T08:36:14.299Z,22
2022-11-13T08:39:40.796Z,22
2022-11-13T08:41:24.154Z,22
2022-11-13T08:43:07.591Z,22.1
2022-11-13T08:44:50.954Z,22.1
2022-11-13T08:46:34.331Z,22.1
2022-11-13T08:48:17.737Z,22.1
2022-11-13T08:50:01.127Z,22.1
2022-11-13T08:51:44.524Z,22.2
2022-11-13T08:55:11.009Z,22.2
2022-11-13T08:56:54.398Z,22.2
2022-11-13T08:58:37.785Z,22.2
2022-11-13T09:00:21.184Z,22.3
2022-11-13T09:02:04.733Z,22.3
2022-11-13T09:03:48.035Z,22.3
2022-11-13T09:05:31.496Z,22.3
2022-11-13T09:07:14.780Z,22.3
2022-11-13T09:10:41.252Z,22.4
2022-11-13T09:12:24.652Z,22.4
2022-11-13T09:14:08.044Z,22.4
2022-11-13T09:15:51.441Z,22.4
2022-11-13T09:17:34.836Z,22.4
2022-11-13T09:19:18.252Z,22.4
2022-11-13T09:21:01.616Z,22.4
2022-11-13T09:22:45.011Z,22.5
2022-11-13T09:24:28.561Z,22.5
2022-11-13T09:27:54.889Z,22.5
2022-11-13T09:29:38.298Z,22.6
2022-11-13T09:31:21.780Z,22.6
2022-11-13T09:33:05.141Z,22.6
2022-11-13T09:34:48.460Z,22.6
2022-11-13T09:36:31.872Z,22.7
2022-11-13T09:38:15.265Z,22.7
2022-11-13T09:39:58.655Z,22.7
2022-11-13T09:45:07.912Z,22.7
2022-11-13T09:46:51.300Z,22.7
2022-11-13T09:48:34.701Z,22.8
2022-11-13T09:50:18.109Z,22.8
2022-11-13T09:52:01.518Z,22.8
2022-11-13T09:53:44.886Z,22.8
2022-11-13T09:55:28.278Z,22.8
2022-11-13T09:57:11.698Z,22.8
2022-11-13T10:00:38.229Z,22.8
2022-11-13T10:02:21.558Z,22.8
2022-11-13T10:04:05.033Z,22.8
2022-11-13T10:05:48.389Z,22.9
2022-11-13T10:07:31.739Z,22.9
2022-11-13T10:09:15.150Z,22.9
2022-11-13T10:10:58.603Z,22.9
2022-11-13T10:12:41.906Z,22.9
2022-11-13T10:16:08.388Z,22.9
2022-11-13T10:17:51.788Z,22.9
2022-11-13T10:19:35.247Z,22.9
2022-11-13T10:21:18.595Z,22.9
2022-11-13T10:23:02.029Z,22.9
2022-11-13T10:24:45.465Z,22.9
2022-11-13T10:26:28.808Z,22.9
2022-11-13T10:28:12.153Z,22.9
2022-11-13T10:31:38.640Z,22.9
2022-11-13T10:33:22.191Z,22.9
2022-11-13T10:35:05.436Z,22.9
2022-11-13T10:36:48.822Z,22.8
2022-11-13T10:38:32.212Z,22.8
2022-11-13T10:40:15.748Z,22.8
2022-11-13T10:41:59.062Z,22.8
2022-11-13T10:43:42.407Z,22.8
2022-11-13T10:47:08.899Z,22.8
2022-11-13T10:48:52.332Z,22.8
2022-11-13T10:50:35.670Z,22.8
2022-11-13T10:52:19.124Z,22.8
2022-11-13T10:54:02.515Z,22.8
2022-11-13T10:55:45.869Z,22.8
2022-11-13T10:57:29.275Z,22.8
2022-11-13T10:59:12.748Z,22.8
2022-11-13T11:02:39.130Z,22.8
2022-11-13T11:04:22.599Z,22.8
2022-11-13T11:06:05.957Z,22.8
2022-11-13T11:07:49.315Z,22.8
2022-11-13T11:09:32.700Z,22.8
2022-11-13T11:11:16.182Z,22.8
2022-11-13T11:12:59.504Z,22.8
2022-11-13T11:14:42.896Z,22.8
2022-11-13T11:18:09.377Z,22.8
2022-11-13T11:19:52.806Z,22.8
2022-11-13T11:21:36.172Z,22.8
2022-11-13T11:23:19.566Z,22.8
2022-11-13T11:25:02.960Z,22.8
2022-11-13T11:26:46.350Z,22.8
2022-11-13T11:28:29.740Z,22.8
2022-11-13T11:30:13.275Z,22.8
2022-11-13T11:33:39.620Z,22.8
2022-11-13T11:35:23.026Z,22.8
2022-11-13T11:37:06.401Z,22.8
2022-11-13T11:38:49.810Z,22.8
2022-11-13T11:40:33.193Z,22.8
2022-11-13T11:42:16.585Z,22.8
2022-11-13T11:43:59.994Z,22.8
2022-11-13T11:45:43.390Z,22.8
2022-11-13T11:49:09.863Z,22.8
2022-11-13T11:50:53.256Z,22.7
2022-11-13T11:52:36.640Z,22.7
2022-11-13T11:54:20.042Z,22.7
2022-11-13T11:56:03.954Z,22.7
2022-11-13T11:57:46.830Z,22.7
2022-11-13T11:59:30.246Z,22.7
2022-11-13T12:01:13.633Z,22.8
2022-11-13T12:04:40.105Z,22.8
2022-11-13T12:06:23.511Z,22.8
2022-11-13T12:08:06.895Z,22.8
2022-11-13T12:09:50.299Z,22.8
2022-11-13T12:11:33.694Z,22.8
2022-11-13T12:13:17.083Z,22.9
2022-11-13T12:15:00.482Z,22.9
2022-11-13T12:16:43.870Z,22.9
2022-11-13T12:20:10.361Z,22.9
2022-11-13T12:21:53.755Z,22.9
2022-11-13T12:23:37.131Z,22.9
2022-11-13T12:25:20.542Z,22.9
2022-11-13T12:27:03.932Z,22.9
2022-11-13T12:28:47.330Z,22.9
2022-11-13T12:30:30.727Z,22.9
2022-11-13T12:32:14.198Z,22.9
2022-11-13T12:35:40.588Z,22.9
2022-11-13T12:37:24.016Z,22.9
2022-11-13T12:39:07.392Z,22.9
2022-11-13T12:40:50.768Z,22.9
2022-11-13T12:42:34.186Z,22.9
2022-11-13T12:44:17.571Z,22.9
2022-11-13T12:46:00.967Z,22.9
2022-11-13T12:47:44.358Z,22.9
2022-11-13T12:51:10.845Z,22.9
2022-11-13T12:52:54.302Z,22.9
2022-11-13T12:54:37.677Z,22.9
2022-11-13T12:56:21.065Z,22.9
2022-11-13T12:58:04.422Z,22.9
2022-11-13T12:59:47.826Z,22.9
2022-11-13T13:01:31.213Z,22.9
2022-11-13T13:03:14.605Z,22.9
2022-11-13T13:08:23.844Z,22.9
2022-11-13T13:10:07.357Z,22.9
2022-11-13T13:11:50.646Z,22.9
2022-11-13T13:13:34.032Z,22.9
2022-11-13T13:15:17.431Z,22.9
2022-11-13T13:17:00.820Z,22.9
2022-11-13T13:18:44.227Z,22.9
2022-11-13T13:20:27.628Z,22.9
2022-11-13T13:22:11.332Z,22.9
2022-11-13T13:23:54.730Z,22.9
2022-11-13T13:25:38.105Z,22.9
2022-11-13T13:27:21.529Z,22.9
2022-11-13T13:29:04.912Z,22.8
2022-11-13T13:30:48.305Z,22.8
2022-11-13T13:32:31.688Z,22.8
2022-11-13T13:34:15.104Z,22.8
2022-11-13T13:37:41.557Z,22.8
2022-11-13T13:39:24.956Z,22.8
2022-11-13T13:41:08.388Z,22.8
2022-11-13T13:42:51.757Z,22.8
2022-11-13T13:44:35.152Z,22.8
2022-11-13T13:46:18.568Z,22.8
2022-11-13T13:48:02.011Z,22.8
2022-11-13T13:49:45.346Z,22.7
2022-11-13T13:53:11.830Z,22.7
2022-11-13T13:54:55.210Z,22.7
2022-11-13T13:56:38.642Z,22.7
2022-11-13T13:58:22.060Z,22.7
2022-11-13T14:00:05.437Z,22.7
2022-11-13T14:01:48.820Z,22.7
2022-11-13T14:03:32.200Z,22.7
2022-11-13T14:05:15.654Z,22.7
2022-11-13T14:10:24.843Z,22.8
2022-11-13T14:12:08.212Z,22.8
2022-11-13T14:13:51.782Z,22.8
2022-11-13T14:15:35.188Z,22.8
2022-11-13T14:17:18.403Z,22.8
2022-11-13T14:19:01.983Z,22.8
2022-11-13T14:20:45.392Z,22.8
2022-11-13T14:22:28.752Z,22.8
2022-11-13T14:25:55.227Z,22.9
2022-11-13T14:27:38.457Z,22.9
2022-11-13T14:29:22.123Z,22.9
2022-11-13T14:31:05.274Z,22.9
2022-11-13T14:32:48.881Z,22.9
2022-11-13T14:34:32.239Z,22.9
2022-11-13T14:36:15.610Z,22.9
2022-11-13T14:37:59.037Z,22.9
2022-11-13T14:43:08.303Z,22.9
2022-11-13T14:44:51.664Z,22.9
2022-11-13T14:46:34.872Z,22.9
2022-11-13T14:48:18.361Z,23
2022-11-13T14:50:01.672Z,23
2022-11-13T14:51:45.251Z,23
2022-11-13T14:53:28.624Z,23
2022-11-13T14:55:12.036Z,23
2022-11-13T15:00:21.266Z,23
2022-11-13T15:02:04.620Z,23
2022-11-13T15:03:48.073Z,23
2022-11-13T15:05:31.518Z,23
2022-11-13T15:07:14.857Z,23
2022-11-13T15:08:58.341Z,23
2022-11-13T15:10:41.643Z,23
2022-11-13T15:12:24.951Z,23
2022-11-13T15:15:51.522Z,22.9
2022-11-13T15:17:34.796Z,22.9
2022-11-13T15:19:18.123Z,22.9
2022-11-13T15:21:01.734Z,22.9
2022-11-13T15:22:45.042Z,22.9
2022-11-13T15:24:28.546Z,23
2022-11-13T15:26:11.909Z,22.9
2022-11-13T15:27:55.252Z,22.9
2022-11-13T15:29:38.978Z,22.9
2022-11-13T15:31:22.351Z,23
2022-11-13T15:33:05.777Z,23
2022-11-13T15:34:49.210Z,23
2022-11-13T15:36:32.604Z,22.9
2022-11-13T15:38:15.994Z,22.9
2022-11-13T15:39:59.315Z,22.9
2022-11-13T15:41:42.800Z,22.9
2022-11-13T15:45:09.242Z,22.9
2022-11-13T15:46:52.461Z,22.9
2022-11-13T15:48:36.029Z,22.9
2022-11-13T15:50:19.352Z,22.9
2022-11-13T15:52:02.844Z,22.9
2022-11-13T15:53:46.155Z,22.9
2022-11-13T15:55:29.628Z,22.9
2022-11-13T15:57:12.832Z,22.9
2022-11-13T16:00:39.481Z,22.9
2022-11-13T16:02:22.838Z,22.9
2022-11-13T16:04:06.288Z,23
2022-11-13T16:05:49.677Z,23
2022-11-13T16:07:33.081Z,23
2022-11-13T16:09:16.467Z,23
2022-11-13T16:10:59.852Z,23
2022-11-13T16:12:43.294Z,23
2022-11-13T16:14:27.004Z,23
2022-11-13T16:16:10.368Z,23
2022-11-13T16:17:53.583Z,23
2022-11-13T16:19:36.968Z,23
2022-11-13T16:21:20.547Z,23
2022-11-13T16:23:03.959Z,22.9
2022-11-13T16:24:47.166Z,22.9
2022-11-13T16:26:30.758Z,22.9
2022-11-13T16:29:57.022Z,22.8
2022-11-13T16:31:40.439Z,22.7
2022-11-13T16:33:23.833Z,22.6
2022-11-13T16:35:07.396Z,22.5
2022-11-13T16:36:50.825Z,22.5
2022-11-13T16:38:34.204Z,22.5
2022-11-13T16:40:17.576Z,22.5
2022-11-13T16:42:00.983Z,22.5
2022-11-13T16:45:27.474Z,22.5
2022-11-13T16:47:10.743Z,22.5
2022-11-13T16:48:54.291Z,22.5
2022-11-13T16:50:37.639Z,22.5
2022-11-13T16:52:20.938Z,22.5
2022-11-13T16:54:04.523Z,22.5
2022-11-13T16:55:47.881Z,22.5
2022-11-13T16:57:31.181Z,22.5
2022-11-13T17:00:57.677Z,22.5
2022-11-13T17:02:41.174Z,22.5
2022-11-13T17:04:24.493Z,22.6
2022-11-13T17:06:07.873Z,22.6
2022-11-13T17:07:51.342Z,22.6
2022-11-13T17:09:34.742Z,22.6
2022-11-13T17:11:18.098Z,22.6
2022-11-13T17:13:01.538Z,22.6
2022-11-13T17:14:45.171Z,22.6
2022-11-13T17:16:28.626Z,22.6
2022-11-13T17:18:11.959Z,22.7
2022-11-13T17:19:55.426Z,22.7
2022-11-13T17:21:38.717Z,22.7
2022-11-13T17:23:21.987Z,22.7
2022-11-13T17:25:05.570Z,22.6
2022-11-13T17:26:48.824Z,22.7
2022-11-13T17:30:15.449Z,22.7
2022-11-13T17:31:58.856Z,22.7
2022-11-13T17:33:42.256Z,22.7
2022-11-13T17:35:25.638Z,22.7
2022-11-13T17:37:09.032Z,22.6
2022-11-13T17:38:52.449Z,22.7
2022-11-13T17:40:35.634Z,22.7
2022-11-13T17:45:45.059Z,22.6
2022-11-13T17:47:28.457Z,22.6
2022-11-13T17:49:11.664Z,22.6
2022-11-13T17:50:55.206Z,22.6
2022-11-13T17:52:38.636Z,22.6
2022-11-13T17:54:22.024Z,22.6
2022-11-13T17:56:05.267Z,22.6
2022-11-13T18:01:14.550Z,22.6
2022-11-13T18:02:58.108Z,22.6
2022-11-13T18:04:41.296Z,22.6
2022-11-13T18:06:24.888Z,22.6
2022-11-13T18:08:08.232Z,22.6
2022-11-13T18:09:51.487Z,22.6
2022-11-13T18:11:35.102Z,22.6
2022-11-13T18:13:18.268Z,22.6
2022-11-13T18:15:01.989Z,22.6
2022-11-13T18:16:45.546Z,22.6
2022-11-13T18:18:29.001Z,22.6
2022-11-13T18:20:12.165Z,22.6
2022-11-13T18:21:55.688Z,22.6
2022-11-13T18:23:39.052Z,22.6
2022-11-13T18:25:22.541Z,22.6
2022-11-13T18:27:05.836Z,22.6
2022-11-13T18:28:49.495Z,22.6
2022-11-13T18:30:33.013Z,22.6
2022-11-13T18:32:16.336Z,22.6
2022-11-13T18:33:59.744Z,22.6
2022-11-13T18:35:43.178Z,22.6
2022-11-13T18:37:26.489Z,22.6
2022-11-13T18:39:09.882Z,22.6
2022-11-13T18:40:53.383Z,22.6
2022-11-13T18:42:37.007Z,22.6
2022-11-13T18:44:20.523Z,22.6
2022-11-13T18:46:03.736Z,22.6
2022-11-13T18:47:47.274Z,22.6
2022-11-13T18:49:30.623Z,22.6
2022-11-13T18:51:13.959Z,22.6
2022-11-13T18:52:57.369Z,22.6
2022-11-13T18:54:40.815Z,22.6
2022-11-13T18:58:07.315Z,22.6
2022-11-13T18:59:50.593Z,22.6
2022-11-13T19:01:34.129Z,22.6
2022-11-13T19:03:17.525Z,22.6
2022-11-13T19:05:00.878Z,22.6
2022-11-13T19:06:44.329Z,22.6
2022-11-13T19:08:27.703Z,22.6
2022-11-13T19:13:36.946Z,22.5
2022-11-13T19:15:20.360Z,22.5
2022-11-13T19:17:03.868Z,22.5
2022-11-13T19:18:47.166Z,22.5
2022-11-13T19:20:30.566Z,22.5
2022-11-13T19:22:13.912Z,22.5
2022-11-13T19:23:57.194Z,22.5
2022-11-13T19:29:06.586Z,22.5
2022-11-13T19:30:50.011Z,22.5
2022-11-13T19:32:33.406Z,22.5
2022-11-13T19:34:16.740Z,22.5
2022-11-13T19:36:00.202Z,22.5
2022-11-13T19:37:43.569Z,22.5
2022-11-13T19:39:26.975Z,22.5
2022-11-13T19:41:10.384Z,22.5
2022-11-13T19:42:54.072Z,22.5
2022-11-13T19:44:37.315Z,22.5
2022-11-13T19:46:20.828Z,22.5
2022-11-13T19:48:04.092Z,22.5
2022-11-13T19:49:47.739Z,22.5
2022-11-13T19:51:31.102Z,22.5
2022-11-13T19:53:14.460Z,22.5
2022-11-13T19:54:57.815Z,22.5
2022-11-13T19:58:24.341Z,22.5
2022-11-13T20:00:07.705Z,22.5
2022-11-13T20:01:51.052Z,22.5
2022-11-13T20:03:34.475Z,22.5
2022-11-13T20:05:17.899Z,22.5
2022-11-13T20:07:01.298Z,22.5
2022-11-13T20:08:44.672Z,22.5
2022-11-13T20:10:28.064Z,22.5
2022-11-13T20:15:37.321Z,22.4
2022-11-13T20:17:20.725Z,22.5
2022-11-13T20:19:04.173Z,22.4
2022-11-13T20:20:47.440Z,22.4
2022-11-13T20:22:30.846Z,22.4
2022-11-13T20:24:14.261Z,22.4
2022-11-13T20:25:57.719Z,22.4
2022-11-13T20:27:40.938Z,22.4
2022-11-13T20:31:07.494Z,22.4
2022-11-13T20:32:50.985Z,22.4
2022-11-13T20:34:34.329Z,22.4
2022-11-13T20:36:17.752Z,22.4
2022-11-13T20:38:01.005Z,22.4
2022-11-13T20:39:44.484Z,22.4
2022-11-13T20:41:27.975Z,22.4
2022-11-13T20:43:11.252Z,22.4
2022-11-13T20:48:20.519Z,22.4
2022-11-13T20:50:03.910Z,22.4
2022-11-13T20:51:47.289Z,22.4
2022-11-13T20:53:30.777Z,22.4
2022-11-13T20:55:14.082Z,22.4
2022-11-13T20:56:57.568Z,22.4
2022-11-13T20:58:40.999Z,22.4
2022-11-13T21:00:24.359Z,22.4
2022-11-13T21:03:50.733Z,22.4
2022-11-13T21:05:34.118Z,22.4
2022-11-13T21:07:17.630Z,22.4
2022-11-13T21:09:01.054Z,22.4
2022-11-13T21:10:44.386Z,22.4
2022-11-13T21:12:27.658Z,22.4
2022-11-13T21:14:11.153Z,22.4
2022-11-13T21:15:54.519Z,22.4
2022-11-13T21:19:21.027Z,22.4
2022-11-13T21:21:04.400Z,22.4
2022-11-13T21:22:47.801Z,22.4
2022-11-13T21:24:31.116Z,22.4
2022-11-13T21:26:14.533Z,22.4
2022-11-13T21:27:58.065Z,22.4
2022-11-13T21:29:41.477Z,22.4
2022-11-13T21:31:24.866Z,22.4
2022-11-13T21:36:34.085Z,22.4
2022-11-13T21:38:17.345Z,22.4
2022-11-13T21:40:00.782Z,22.4
2022-11-13T21:41:44.290Z,22.3
2022-11-13T21:43:27.645Z,22.3
2022-11-13T21:45:10.948Z,22.3
2022-11-13T21:46:54.542Z,22.3
2022-11-13T21:48:37.824Z,22.3
2022-11-13T21:52:04.285Z,22.3
2022-11-13T21:53:47.644Z,22.3
2022-11-13T21:55:30.997Z,22.3
2022-11-13T21:57:14.511Z,22.3
2022-11-13T21:58:57.864Z,22.3
2022-11-13T22:00:41.273Z,22.3
2022-11-13T22:02:24.655Z,22.3
2022-11-13T22:04:08.029Z,22.3
2022-11-13T22:09:17.233Z,22.3
2022-11-13T22:11:00.612Z,22.3
2022-11-13T22:12:44.017Z,22.3
2022-11-13T22:14:27.583Z,22.3
2022-11-13T22:16:10.856Z,22.3
2022-11-13T22:17:54.275Z,22.3
2022-11-13T22:19:37.605Z,22.3
2022-11-13T22:21:21.055Z,22.3
2022-11-13T22:26:30.329Z,22.3
2022-11-13T22:28:13.735Z,22.3
2022-11-13T22:29:57.085Z,22.3
2022-11-13T22:31:40.552Z,22.3
2022-11-13T22:33:23.840Z,22.3
2022-11-13T22:35:07.320Z,22.3
2022-11-13T22:36:50.658Z,22.3
2022-11-13T22:38:34.024Z,22.3
2022-11-13T22:43:43.296Z,22.2
2022-11-13T22:45:26.740Z,22.3
2022-11-13T22:47:10.193Z,22.2
2022-11-13T22:48:53.460Z,22.2
2022-11-13T22:50:36.925Z,22.2
2022-11-13T22:52:20.341Z,22.2
2022-11-13T22:54:03.831Z,22.2
2022-11-13T22:55:47.025Z,22.2
2022-11-13T22:57:30.544Z,22.2
2022-11-13T22:59:14.183Z,22.2
2022-11-13T23:00:57.620Z,22.2
2022-11-13T23:02:41.044Z,22.2
2022-11-13T23:04:24.473Z,22.2
2022-11-13T23:06:07.802Z,22.2
2022-11-13T23:07:51.143Z,22.2
2022-11-13T23:09:34.678Z,22.2
2022-11-13T23:11:17.966Z,22.2
2022-11-13T23:13:01.319Z,22.2
2022-11-13T23:16:27.785Z,22.2
2022-11-13T23:18:11.252Z,22.2
2022-11-13T23:19:54.575Z,22.2
2022-11-13T23:21:38.021Z,22.2
2022-11-13T23:23:21.384Z,22.2
2022-11-13T23:25:04.805Z,22.2
2022-11-13T23:26:48.180Z,22.2
2022-11-13T23:28:31.582Z,22.2
2022-11-13T23:33:40.979Z,22.2
2022-11-13T23:35:24.203Z,22.2
2022-11-13T23:37:07.593Z,22.2
2022-11-13T23:38:51.066Z,22.2
2022-11-13T23:40:34.399Z,22.2
2022-11-13T23:42:17.797Z,22.2
2022-11-13T23:44:01.179Z,22.2
2022-11-13T23:45:44.588Z,22.2
2022-11-13T23:50:53.848Z,22.2
2022-11-13T23:52:37.220Z,22.2
2022-11-13T23:54:20.638Z,22.2
2022-11-13T23:56:04.041Z,22.2
2022-11-13T23:57:47.414Z,22.2
2022-11-13T23:59:30.876Z,22.2
